createdAt,value
2022-10-17T00:00:27.518Z,101702.45
2022-10-17T00:05:40.318Z,101696.25
2022-10-17T00:10:56.888Z,101708.40
2022-10-17T00:16:05.172Z,101709.15
2022-10-17T00:21:20.534Z,101710.56
2022-10-17T00:26:31.661Z,101719.24
2022-10-17T00:31:46.094Z,101720.57
2022-10-17T00:36:59.920Z,101716.44
2022-10-17T00:42:15.067Z,101712.38
2022-10-17T00:47:28.055Z,101713.42
2022-10-17T00:52:40.367Z,101694.27
2022-10-17T00:57:54.153Z,101702.56
2022-10-17T01:03:04.418Z,101713.96
2022-10-17T01:08:18.349Z,101723.73
2022-10-17T01:13:32.005Z,101724.71
2022-10-17T01:18:54.489Z,101726.88
2022-10-17T01:24:48.473Z,101734.30
2022-10-17T01:30:22.539Z,101739.66
2022-10-17T01:35:50.198Z,101751.77
2022-10-17T01:41:17.060Z,101754.64
2022-10-17T01:46:34.903Z,101761.17
2022-10-17T01:51:50.447Z,101760.55
2022-10-17T01:57:03.375Z,101754.31
2022-10-17T02:02:19.761Z,101751.15
2022-10-17T02:07:30.133Z,101750.70
2022-10-17T02:12:56.017Z,101740.36
2022-10-17T02:18:19.085Z,101751.91
2022-10-17T02:23:41.309Z,101763.80
2022-10-17T02:29:01.032Z,101766.27
2022-10-17T02:34:15.555Z,101773.10
2022-10-17T02:39:31.745Z,101771.11
2022-10-17T02:44:42.921Z,101771.61
2022-10-17T02:49:55.235Z,101774.73
2022-10-17T02:55:20.797Z,101774.14
2022-10-17T03:00:30.513Z,101780.27
2022-10-17T03:05:39.887Z,101788.15
2022-10-17T03:10:48.469Z,101787.47
2022-10-17T03:15:59.946Z,101785.27
2022-10-17T03:21:08.555Z,101793.38
2022-10-17T03:26:22.560Z,101802.51
2022-10-17T03:31:58.597Z,101804.24
2022-10-17T03:37:46.100Z,101798.86
2022-10-17T03:43:19.784Z,101809.73
2022-10-17T03:48:35.324Z,101819.70
2022-10-17T03:53:54.298Z,101822.45
2022-10-17T03:59:05.859Z,101825.91
2022-10-17T04:04:39.534Z,101826.96
2022-10-17T04:09:56.837Z,101827.48
2022-10-17T04:15:17.954Z,101823.95
2022-10-17T04:20:29.528Z,101815.30
2022-10-17T04:25:55.353Z,101814.08
2022-10-17T04:32:14.706Z,101831.23
2022-10-17T04:37:52.842Z,101828.98
2022-10-17T04:43:04.556Z,101821.51
2022-10-17T04:48:23.291Z,101824.24
2022-10-17T04:53:50.639Z,101828.73
2022-10-17T04:59:26.952Z,101837.85
2022-10-17T05:04:45.838Z,101839.90
2022-10-17T05:09:55.587Z,101843.52
2022-10-17T05:15:12.232Z,101853.34
2022-10-17T05:20:43.592Z,101861.27
2022-10-17T05:26:11.424Z,101851.08
2022-10-17T05:31:28.616Z,101847.54
2022-10-17T05:36:45.748Z,101856.73
2022-10-17T05:41:57.785Z,101863.02
2022-10-17T05:47:09.928Z,101864.66
2022-10-17T05:52:33.628Z,101859.63
2022-10-17T05:58:49.106Z,101865.69
2022-10-17T06:04:48.946Z,101863.69
2022-10-17T06:10:04.798Z,101875.53
2022-10-17T06:15:20.642Z,101874.66
2022-10-17T06:20:35.128Z,101881.74
2022-10-17T06:25:49.175Z,101892.91
2022-10-17T06:30:57.610Z,101897.70
2022-10-17T06:36:07.401Z,101895.38
2022-10-17T06:41:19.510Z,101901.16
2022-10-17T06:46:30.138Z,101913.40
2022-10-17T06:51:45.468Z,101915.88
2022-10-17T06:56:58.236Z,101920.51
2022-10-17T07:02:27.730Z,101927.04
2022-10-17T07:07:41.533Z,101930.95
2022-10-17T07:12:53.800Z,101926.27
2022-10-17T07:18:54.175Z,101923.36
2022-10-17T07:24:07.535Z,101923.50
2022-10-17T07:29:17.055Z,101924.86
2022-10-17T07:34:34.200Z,101932.30
2022-10-17T07:39:59.149Z,101930.75
2022-10-17T07:45:19.623Z,101927.77
2022-10-17T07:50:33.111Z,101929.37
2022-10-17T07:55:41.644Z,101921.47
2022-10-17T08:01:27.324Z,101909.39
2022-10-17T08:06:34.767Z,101900.54
2022-10-17T08:11:44.143Z,101901.27
2022-10-17T08:16:51.633Z,101901.33
2022-10-17T08:22:01.736Z,101895.42
2022-10-17T08:27:14.112Z,101890.64
2022-10-17T08:32:26.344Z,101890.77
2022-10-17T08:38:20.813Z,101888.38
2022-10-17T08:43:41.037Z,101884.05
2022-10-17T08:48:51.263Z,101879.66
2022-10-17T08:54:03.680Z,101874.41
2022-10-17T08:59:43.757Z,101870.14
2022-10-17T09:05:31.092Z,101863.41
2022-10-17T09:10:48.196Z,101862.39
2022-10-17T09:16:21.094Z,101856.80
2022-10-17T09:28:37.519Z,101848.65
2022-10-17T09:34:22.996Z,101852.41
2022-10-17T09:40:09.343Z,101853.85
2022-10-17T09:45:32.530Z,101859.72
2022-10-17T09:50:53.863Z,101854.00
2022-10-17T09:56:19.229Z,101851.14
2022-10-17T10:01:29.989Z,101857.30
2022-10-17T10:06:37.645Z,101862.23
2022-10-17T10:12:13.507Z,101860.02
2022-10-17T10:18:00.671Z,101860.89
2022-10-17T10:23:28.001Z,101846.76
2022-10-17T10:29:07.493Z,101843.32
2022-10-17T10:34:39.295Z,101836.63
2022-10-17T10:40:21.552Z,101838.08
2022-10-17T10:45:53.672Z,101840.66
2022-10-17T10:51:07.127Z,101835.20
2022-10-17T10:56:19.730Z,101826.80
2022-10-17T11:01:35.870Z,101824.30
2022-10-17T11:06:46.417Z,101818.09
2022-10-17T11:12:02.218Z,101810.73
2022-10-17T11:17:19.568Z,101811.30
2022-10-17T11:22:47.496Z,101807.80
2022-10-17T11:28:04.708Z,101803.73
2022-10-17T11:33:29.670Z,101803.14
2022-10-17T11:38:47.655Z,101805.17
2022-10-17T11:44:00.865Z,101798.38
2022-10-17T11:49:20.048Z,101797.73
2022-10-17T11:54:39.881Z,101795.69
2022-10-17T12:00:33.587Z,101794.48
2022-10-17T12:05:59.516Z,101791.09
2022-10-17T12:11:21.852Z,101777.02
2022-10-17T12:16:51.679Z,101776.34
2022-10-17T12:22:01.646Z,101776.42
2022-10-17T12:27:32.976Z,101766.72
2022-10-17T12:33:05.563Z,101755.02
2022-10-17T12:38:30.904Z,101751.76
2022-10-17T12:43:55.463Z,101748.83
2022-10-17T12:49:21.681Z,101749.48
2022-10-17T12:54:37.839Z,101752.52
2022-10-17T12:59:58.719Z,101747.00
2022-10-17T13:05:33.215Z,101740.61
2022-10-17T13:10:43.789Z,101737.62
2022-10-17T13:15:53.836Z,101736.55
2022-10-17T13:21:05.497Z,101723.80
2022-10-17T13:26:40.477Z,101716.13
2022-10-17T13:31:53.564Z,101714.58
2022-10-17T13:37:04.768Z,101710.50
2022-10-17T13:42:22.989Z,101703.09
2022-10-17T13:47:38.042Z,101699.95
2022-10-17T13:52:45.757Z,101698.71
2022-10-17T13:57:53.110Z,101698.52
2022-10-17T14:03:02.962Z,101687.39
2022-10-17T14:08:23.328Z,101683.94
2022-10-17T14:13:35.847Z,101678.14
2022-10-17T14:18:48.084Z,101672.59
2022-10-17T14:24:16.035Z,101675.34
2022-10-17T14:29:28.277Z,101671.04
2022-10-17T14:34:40.722Z,101668.66
2022-10-17T14:39:55.485Z,101669.21
2022-10-17T14:45:21.275Z,101668.31
2022-10-17T14:50:31.529Z,101665.20
2022-10-17T14:55:55.574Z,101673.32
2022-10-17T15:01:47.791Z,101673.33
2022-10-17T15:07:15.477Z,101671.67
2022-10-17T15:12:59.222Z,101667.52
2022-10-17T15:18:18.351Z,101663.92
2022-10-17T15:23:29.123Z,101670.63
2022-10-17T15:28:41.630Z,101670.95
2022-10-17T15:33:53.063Z,101666.06
2022-10-17T15:46:47.327Z,101663.25
2022-10-17T15:52:07.057Z,101674.33
2022-10-17T15:57:21.085Z,101680.30
2022-10-17T16:02:30.051Z,101677.61
2022-10-17T16:07:38.511Z,101671.96
2022-10-17T16:12:50.247Z,101674.13
2022-10-17T16:18:05.875Z,101675.52
2022-10-17T16:23:22.708Z,101671.73
2022-10-17T16:28:30.582Z,101681.73
2022-10-17T16:33:38.596Z,101682.69
2022-10-17T16:38:54.324Z,101678.65
2022-10-17T16:44:03.433Z,101671.39
2022-10-17T16:49:16.178Z,101668.85
2022-10-17T16:54:23.867Z,101664.27
2022-10-17T16:59:32.170Z,101667.58
2022-10-17T17:04:39.681Z,101667.80
2022-10-17T17:09:54.976Z,101670.14
2022-10-17T17:15:03.306Z,101667.88
2022-10-17T17:20:11.358Z,101670.30
2022-10-17T17:25:19.785Z,101667.75
2022-10-17T17:30:28.448Z,101665.83
2022-10-17T17:35:36.229Z,101674.10
2022-10-17T17:40:50.881Z,101675.70
2022-10-17T17:45:59.026Z,101671.98
2022-10-17T17:51:29.507Z,101669.06
2022-10-17T17:56:40.774Z,101664.22
2022-10-17T18:01:48.890Z,101662.48
2022-10-17T18:07:24.812Z,101664.10
2022-10-17T18:12:34.879Z,101665.42
2022-10-17T18:17:49.693Z,101658.98
2022-10-17T18:23:04.092Z,101650.30
2022-10-17T18:28:23.880Z,101652.07
2022-10-17T18:33:31.660Z,101649.36
2022-10-17T18:38:39.257Z,101644.50
2022-10-17T18:43:51.554Z,101644.68
2022-10-17T18:48:59.919Z,101646.72
2022-10-17T18:54:13.665Z,101641.51
2022-10-17T18:59:22.522Z,101634.87
2022-10-17T19:04:31.067Z,101634.18
2022-10-17T19:11:09.865Z,101634.93
2022-10-17T19:16:10.437Z,101639.71
2022-10-17T19:21:22.430Z,101645.19
2022-10-17T19:26:33.410Z,101645.42
2022-10-17T19:31:45.426Z,101641.48
2022-10-17T19:37:02.317Z,101639.89
2022-10-17T19:42:20.437Z,101642.30
2022-10-17T19:47:32.308Z,101643.36
2022-10-17T19:52:38.996Z,101641.77
2022-10-17T19:57:59.562Z,101639.80
2022-10-17T20:03:10.884Z,101639.05
2022-10-17T20:08:22.647Z,101639.86
2022-10-17T20:13:40.304Z,101639.77
2022-10-17T20:18:57.509Z,101642.05
2022-10-17T20:24:08.232Z,101642.45
2022-10-17T20:36:41.242Z,101638.92
2022-10-17T20:41:55.173Z,101646.80
2022-10-17T21:01:28.001Z,101643.16
2022-10-17T21:06:43.729Z,101646.37
2022-10-17T21:12:04.192Z,101643.31
2022-10-17T21:25:27.544Z,101643.30
2022-10-17T21:31:33.315Z,101629.86
2022-10-17T21:37:02.322Z,101631.06
2022-10-17T21:42:26.182Z,101632.48
2022-10-17T21:48:11.637Z,101630.23
2022-10-17T21:53:35.055Z,101631.13
2022-10-17T21:58:46.308Z,101635.98
2022-10-17T22:04:00.719Z,101636.13
2022-10-17T22:09:13.149Z,101630.80
2022-10-17T22:14:22.889Z,101630.50
2022-10-17T22:19:32.411Z,101628.82
2022-10-17T22:24:45.078Z,101627.15
2022-10-17T22:30:05.729Z,101627.20
2022-10-17T22:35:43.274Z,101625.86
2022-10-17T22:40:58.325Z,101617.20
2022-10-17T22:46:12.459Z,101617.63
2022-10-17T22:51:26.654Z,101622.39
2022-10-17T22:56:39.361Z,101624.64
2022-10-17T23:01:47.048Z,101622.55
2022-10-17T23:06:54.977Z,101622.23
2022-10-17T23:12:07.852Z,101622.00
2022-10-17T23:17:17.488Z,101616.26
2022-10-17T23:22:27.621Z,101617.69
2022-10-17T23:27:37.102Z,101617.08
2022-10-17T23:32:48.904Z,101623.21
2022-10-17T23:37:56.292Z,101622.34
2022-10-17T23:43:07.124Z,101619.79
2022-10-17T23:48:15.469Z,101614.57
2022-10-17T23:53:25.002Z,101617.63
2022-10-17T23:58:37.088Z,101617.81
